sensor_id;sensor_type;location;lat;lon;timestamp;P1;durP1;ratioP1;P2;durP2;ratioP2
15488;SDS011;7846;48.830;9.116;2022-12-17T00:00:21;22.40;;;13.45;;
15488;SDS011;7846;48.830;9.116;2022-12-17T00:03:07;18.23;;;12.60;;
15488;SDS011;7846;48.830;9.116;2022-12-17T00:05:53;21.67;;;14.18;;
15488;SDS011;7846;48.830;9.116;2022-12-17T00:08:37;24.13;;;20.05;;
15488;SDS011;7846;48.830;9.116;2022-12-17T00:11:21;20.35;;;13.90;;
15488;SDS011;7846;48.830;9.116;2022-12-17T00:14:04;21.42;;;14.18;;
15488;SDS011;7846;48.830;9.116;2022-12-17T00:16:51;20.55;;;13.55;;
15488;SDS011;7846;48.830;9.116;2022-12-17T00:19:35;20.05;;;13.30;;
15488;SDS011;7846;48.830;9.116;2022-12-17T00:22:19;20.15;;;13.85;;
15488;SDS011;7846;48.830;9.116;2022-12-17T00:25:03;23.10;;;14.68;;
15488;SDS011;7846;48.830;9.116;2022-12-17T00:27:47;21.80;;;14.30;;
15488;SDS011;7846;48.830;9.116;2022-12-17T00:30:31;22.85;;;14.43;;
15488;SDS011;7846;48.830;9.116;2022-12-17T00:33:15;21.05;;;14.55;;
15488;SDS011;7846;48.830;9.116;2022-12-17T00:36:00;24.60;;;14.73;;
15488;SDS011;7846;48.830;9.116;2022-12-17T00:38:44;21.80;;;13.98;;
15488;SDS011;7846;48.830;9.116;2022-12-17T00:41:28;22.75;;;14.50;;
15488;SDS011;7846;48.830;9.116;2022-12-17T00:44:12;22.13;;;14.63;;
15488;SDS011;7846;48.830;9.116;2022-12-17T00:46:56;20.83;;;14.55;;
15488;SDS011;7846;48.830;9.116;2022-12-17T00:49:40;22.27;;;14.52;;
15488;SDS011;7846;48.830;9.116;2022-12-17T00:52:24;22.15;;;15.15;;
15488;SDS011;7846;48.830;9.116;2022-12-17T00:55:08;24.10;;;15.30;;
15488;SDS011;7846;48.830;9.116;2022-12-17T00:57:54;21.08;;;15.45;;
15488;SDS011;7846;48.830;9.116;2022-12-17T01:00:39;23.02;;;15.50;;
15488;SDS011;7846;48.830;9.116;2022-12-17T01:03:24;22.73;;;14.82;;
15488;SDS011;7846;48.830;9.116;2022-12-17T01:06:08;22.83;;;15.57;;
15488;SDS011;7846;48.830;9.116;2022-12-17T01:08:52;22.83;;;15.70;;
15488;SDS011;7846;48.830;9.116;2022-12-17T01:11:37;22.58;;;14.65;;
15488;SDS011;7846;48.830;9.116;2022-12-17T01:14:21;28.15;;;15.30;;
15488;SDS011;7846;48.830;9.116;2022-12-17T01:17:05;21.33;;;14.77;;
15488;SDS011;7846;48.830;9.116;2022-12-17T01:19:49;22.00;;;15.00;;
15488;SDS011;7846;48.830;9.116;2022-12-17T01:22:33;22.98;;;14.80;;
15488;SDS011;7846;48.830;9.116;2022-12-17T01:25:17;21.23;;;15.27;;
15488;SDS011;7846;48.830;9.116;2022-12-17T01:28:01;23.85;;;15.10;;
15488;SDS011;7846;48.830;9.116;2022-12-17T01:30:45;22.10;;;14.80;;
15488;SDS011;7846;48.830;9.116;2022-12-17T01:33:29;21.70;;;14.80;;
15488;SDS011;7846;48.830;9.116;2022-12-17T01:36:13;22.13;;;14.57;;
15488;SDS011;7846;48.830;9.116;2022-12-17T01:38:58;20.52;;;14.40;;
15488;SDS011;7846;48.830;9.116;2022-12-17T01:41:43;23.67;;;15.00;;
15488;SDS011;7846;48.830;9.116;2022-12-17T01:47:27;19.02;;;13.40;;
15488;SDS011;7846;48.830;9.116;2022-12-17T01:50:14;21.88;;;14.02;;
15488;SDS011;7846;48.830;9.116;2022-12-17T01:53:00;23.15;;;14.57;;
15488;SDS011;7846;48.830;9.116;2022-12-17T01:55:47;21.63;;;14.55;;
15488;SDS011;7846;48.830;9.116;2022-12-17T01:58:31;20.23;;;13.95;;
15488;SDS011;7846;48.830;9.116;2022-12-17T02:01:17;20.10;;;13.25;;
15488;SDS011;7846;48.830;9.116;2022-12-17T02:04:01;22.55;;;14.85;;
15488;SDS011;7846;48.830;9.116;2022-12-17T02:06:49;24.73;;;14.07;;
15488;SDS011;7846;48.830;9.116;2022-12-17T02:09:46;18.38;;;12.82;;
15488;SDS011;7846;48.830;9.116;2022-12-17T02:12:43;17.42;;;12.57;;
15488;SDS011;7846;48.830;9.116;2022-12-17T02:15:34;19.05;;;13.15;;
15488;SDS011;7846;48.830;9.116;2022-12-17T02:18:28;20.58;;;13.15;;
15488;SDS011;7846;48.830;9.116;2022-12-17T02:21:18;21.40;;;13.02;;
15488;SDS011;7846;48.830;9.116;2022-12-17T02:24:11;24.10;;;13.82;;
15488;SDS011;7846;48.830;9.116;2022-12-17T02:27:04;27.65;;;14.05;;
15488;SDS011;7846;48.830;9.116;2022-12-17T02:29:55;22.17;;;13.88;;
15488;SDS011;7846;48.830;9.116;2022-12-17T02:32:42;20.95;;;13.68;;
15488;SDS011;7846;48.830;9.116;2022-12-17T02:35:33;20.42;;;13.93;;
15488;SDS011;7846;48.830;9.116;2022-12-17T02:38:22;18.60;;;13.27;;
15488;SDS011;7846;48.830;9.116;2022-12-17T02:44:27;21.45;;;13.15;;
15488;SDS011;7846;48.830;9.116;2022-12-17T02:47:13;20.27;;;13.82;;
15488;SDS011;7846;48.830;9.116;2022-12-17T02:49:57;21.08;;;13.63;;
15488;SDS011;7846;48.830;9.116;2022-12-17T02:52:43;24.25;;;14.50;;
15488;SDS011;7846;48.830;9.116;2022-12-17T02:55:29;23.52;;;13.68;;
15488;SDS011;7846;48.830;9.116;2022-12-17T02:58:14;22.88;;;14.23;;
15488;SDS011;7846;48.830;9.116;2022-12-17T03:00:58;21.60;;;13.82;;
15488;SDS011;7846;48.830;9.116;2022-12-17T03:03:42;22.52;;;14.23;;
15488;SDS011;7846;48.830;9.116;2022-12-17T03:06:26;23.52;;;14.77;;
15488;SDS011;7846;48.830;9.116;2022-12-17T03:09:09;24.02;;;14.85;;
15488;SDS011;7846;48.830;9.116;2022-12-17T03:11:53;23.42;;;14.80;;
15488;SDS011;7846;48.830;9.116;2022-12-17T03:14:37;21.77;;;14.50;;
15488;SDS011;7846;48.830;9.116;2022-12-17T03:17:21;23.52;;;14.88;;
15488;SDS011;7846;48.830;9.116;2022-12-17T03:20:04;22.67;;;14.77;;
15488;SDS011;7846;48.830;9.116;2022-12-17T03:22:50;23.15;;;14.88;;
15488;SDS011;7846;48.830;9.116;2022-12-17T03:25:34;24.05;;;14.57;;
15488;SDS011;7846;48.830;9.116;2022-12-17T03:28:17;21.77;;;15.40;;
15488;SDS011;7846;48.830;9.116;2022-12-17T03:31:01;22.08;;;14.40;;
15488;SDS011;7846;48.830;9.116;2022-12-17T03:33:45;21.08;;;14.63;;
15488;SDS011;7846;48.830;9.116;2022-12-17T03:36:29;21.27;;;13.77;;
15488;SDS011;7846;48.830;9.116;2022-12-17T03:39:30;23.48;;;14.50;;
15488;SDS011;7846;48.830;9.116;2022-12-17T03:42:14;19.92;;;13.82;;
15488;SDS011;7846;48.830;9.116;2022-12-17T03:44:57;22.70;;;13.50;;
15488;SDS011;7846;48.830;9.116;2022-12-17T03:47:43;23.50;;;13.82;;
15488;SDS011;7846;48.830;9.116;2022-12-17T03:50:27;22.25;;;13.90;;
15488;SDS011;7846;48.830;9.116;2022-12-17T03:53:12;21.58;;;13.52;;
15488;SDS011;7846;48.830;9.116;2022-12-17T03:55:56;22.83;;;14.40;;
15488;SDS011;7846;48.830;9.116;2022-12-17T03:58:40;19.80;;;13.05;;
15488;SDS011;7846;48.830;9.116;2022-12-17T04:01:28;21.30;;;13.85;;
15488;SDS011;7846;48.830;9.116;2022-12-17T04:04:12;21.23;;;14.13;;
15488;SDS011;7846;48.830;9.116;2022-12-17T04:06:56;20.23;;;14.00;;
15488;SDS011;7846;48.830;9.116;2022-12-17T04:09:40;21.45;;;13.63;;
15488;SDS011;7846;48.830;9.116;2022-12-17T04:12:24;20.52;;;13.52;;
15488;SDS011;7846;48.830;9.116;2022-12-17T04:15:08;19.90;;;13.98;;
15488;SDS011;7846;48.830;9.116;2022-12-17T04:17:53;25.67;;;13.77;;
15488;SDS011;7846;48.830;9.116;2022-12-17T04:20:37;25.45;;;13.60;;
15488;SDS011;7846;48.830;9.116;2022-12-17T04:23:21;21.73;;;13.82;;
15488;SDS011;7846;48.830;9.116;2022-12-17T04:26:05;23.60;;;13.15;;
15488;SDS011;7846;48.830;9.116;2022-12-17T04:28:49;23.38;;;13.88;;
15488;SDS011;7846;48.830;9.116;2022-12-17T04:31:34;19.40;;;13.52;;
15488;SDS011;7846;48.830;9.116;2022-12-17T04:34:18;20.67;;;13.60;;
15488;SDS011;7846;48.830;9.116;2022-12-17T04:37:04;23.38;;;13.93;;
15488;SDS011;7846;48.830;9.116;2022-12-17T04:39:48;24.75;;;14.43;;
15488;SDS011;7846;48.830;9.116;2022-12-17T04:42:43;28.65;;;16.02;;
15488;SDS011;7846;48.830;9.116;2022-12-17T04:45:26;26.55;;;14.70;;
15488;SDS011;7846;48.830;9.116;2022-12-17T04:48:21;27.70;;;14.43;;
15488;SDS011;7846;48.830;9.116;2022-12-17T04:51:05;25.00;;;14.50;;
15488;SDS011;7846;48.830;9.116;2022-12-17T04:53:49;29.00;;;15.45;;
15488;SDS011;7846;48.830;9.116;2022-12-17T04:56:33;34.10;;;16.05;;
15488;SDS011;7846;48.830;9.116;2022-12-17T04:59:17;35.72;;;16.30;;
15488;SDS011;7846;48.830;9.116;2022-12-17T05:02:01;35.55;;;16.40;;
15488;SDS011;7846;48.830;9.116;2022-12-17T05:05:06;36.15;;;16.70;;
15488;SDS011;7846;48.830;9.116;2022-12-17T05:07:54;36.20;;;15.98;;
15488;SDS011;7846;48.830;9.116;2022-12-17T05:10:38;29.67;;;16.00;;
15488;SDS011;7846;48.830;9.116;2022-12-17T05:13:25;30.10;;;15.80;;
15488;SDS011;7846;48.830;9.116;2022-12-17T05:16:11;31.40;;;15.45;;
15488;SDS011;7846;48.830;9.116;2022-12-17T05:18:55;36.33;;;16.95;;
15488;SDS011;7846;48.830;9.116;2022-12-17T05:21:40;40.05;;;18.17;;
15488;SDS011;7846;48.830;9.116;2022-12-17T05:24:24;40.65;;;18.67;;
15488;SDS011;7846;48.830;9.116;2022-12-17T05:27:07;44.53;;;18.92;;
15488;SDS011;7846;48.830;9.116;2022-12-17T05:29:54;47.50;;;18.40;;
15488;SDS011;7846;48.830;9.116;2022-12-17T05:32:37;47.33;;;17.77;;
15488;SDS011;7846;48.830;9.116;2022-12-17T05:35:21;37.88;;;17.42;;
15488;SDS011;7846;48.830;9.116;2022-12-17T05:38:07;42.78;;;18.77;;
15488;SDS011;7846;48.830;9.116;2022-12-17T05:40:57;33.83;;;17.50;;
15488;SDS011;7846;48.830;9.116;2022-12-17T05:43:41;37.97;;;17.60;;
15488;SDS011;7846;48.830;9.116;2022-12-17T05:46:26;35.30;;;17.60;;
15488;SDS011;7846;48.830;9.116;2022-12-17T05:49:10;32.55;;;16.00;;
15488;SDS011;7846;48.830;9.116;2022-12-17T05:51:54;30.35;;;17.00;;
15488;SDS011;7846;48.830;9.116;2022-12-17T05:54:38;30.58;;;16.30;;
15488;SDS011;7846;48.830;9.116;2022-12-17T05:57:22;33.90;;;17.08;;
15488;SDS011;7846;48.830;9.116;2022-12-17T06:00:07;30.58;;;16.63;;
15488;SDS011;7846;48.830;9.116;2022-12-17T06:02:56;30.35;;;16.48;;
15488;SDS011;7846;48.830;9.116;2022-12-17T06:05:44;32.00;;;17.15;;
15488;SDS011;7846;48.830;9.116;2022-12-17T06:08:29;32.50;;;16.10;;
15488;SDS011;7846;48.830;9.116;2022-12-17T06:11:13;33.67;;;15.90;;
15488;SDS011;7846;48.830;9.116;2022-12-17T06:13:56;31.50;;;16.67;;
15488;SDS011;7846;48.830;9.116;2022-12-17T06:16:42;34.03;;;16.65;;
15488;SDS011;7846;48.830;9.116;2022-12-17T06:19:25;30.35;;;16.08;;
15488;SDS011;7846;48.830;9.116;2022-12-17T06:22:10;37.08;;;16.77;;
15488;SDS011;7846;48.830;9.116;2022-12-17T06:25:05;32.08;;;16.83;;
15488;SDS011;7846;48.830;9.116;2022-12-17T06:27:56;31.55;;;16.73;;
15488;SDS011;7846;48.830;9.116;2022-12-17T06:30:41;33.17;;;18.00;;
15488;SDS011;7846;48.830;9.116;2022-12-17T06:33:25;31.58;;;17.55;;
15488;SDS011;7846;48.830;9.116;2022-12-17T06:36:09;32.30;;;17.35;;
15488;SDS011;7846;48.830;9.116;2022-12-17T06:38:53;32.40;;;18.85;;
15488;SDS011;7846;48.830;9.116;2022-12-17T06:41:37;31.95;;;19.13;;
15488;SDS011;7846;48.830;9.116;2022-12-17T06:44:24;31.70;;;18.55;;
15488;SDS011;7846;48.830;9.116;2022-12-17T06:47:08;30.75;;;18.75;;
15488;SDS011;7846;48.830;9.116;2022-12-17T06:49:51;31.83;;;17.67;;
15488;SDS011;7846;48.830;9.116;2022-12-17T06:52:35;31.85;;;18.60;;
15488;SDS011;7846;48.830;9.116;2022-12-17T06:55:19;31.58;;;17.63;;
15488;SDS011;7846;48.830;9.116;2022-12-17T06:58:03;28.60;;;17.52;;
15488;SDS011;7846;48.830;9.116;2022-12-17T07:00:47;30.30;;;17.08;;
15488;SDS011;7846;48.830;9.116;2022-12-17T07:03:34;32.03;;;18.23;;
15488;SDS011;7846;48.830;9.116;2022-12-17T07:06:18;30.60;;;18.77;;
15488;SDS011;7846;48.830;9.116;2022-12-17T07:09:03;32.83;;;17.90;;
15488;SDS011;7846;48.830;9.116;2022-12-17T07:11:47;31.42;;;17.45;;
15488;SDS011;7846;48.830;9.116;2022-12-17T07:14:31;34.28;;;18.35;;
15488;SDS011;7846;48.830;9.116;2022-12-17T07:17:15;35.05;;;17.60;;
15488;SDS011;7846;48.830;9.116;2022-12-17T07:19:59;29.02;;;16.10;;
15488;SDS011;7846;48.830;9.116;2022-12-17T07:22:43;30.73;;;17.58;;
15488;SDS011;7846;48.830;9.116;2022-12-17T07:25:27;31.67;;;17.58;;
15488;SDS011;7846;48.830;9.116;2022-12-17T07:28:10;27.55;;;17.48;;
15488;SDS011;7846;48.830;9.116;2022-12-17T07:30:55;30.38;;;18.50;;
15488;SDS011;7846;48.830;9.116;2022-12-17T07:33:39;35.97;;;20.92;;
15488;SDS011;7846;48.830;9.116;2022-12-17T07:36:23;33.50;;;21.30;;
15488;SDS011;7846;48.830;9.116;2022-12-17T07:39:07;34.08;;;22.20;;
15488;SDS011;7846;48.830;9.116;2022-12-17T07:41:52;32.85;;;20.63;;
15488;SDS011;7846;48.830;9.116;2022-12-17T07:44:35;29.45;;;19.60;;
15488;SDS011;7846;48.830;9.116;2022-12-17T07:47:20;30.73;;;20.20;;
15488;SDS011;7846;48.830;9.116;2022-12-17T07:50:04;28.25;;;18.88;;
15488;SDS011;7846;48.830;9.116;2022-12-17T07:52:57;30.23;;;19.58;;
15488;SDS011;7846;48.830;9.116;2022-12-17T07:55:42;32.45;;;21.40;;
15488;SDS011;7846;48.830;9.116;2022-12-17T07:58:29;30.27;;;20.02;;
15488;SDS011;7846;48.830;9.116;2022-12-17T08:01:13;29.02;;;19.92;;
15488;SDS011;7846;48.830;9.116;2022-12-17T08:03:57;28.23;;;19.15;;
15488;SDS011;7846;48.830;9.116;2022-12-17T08:06:40;27.60;;;19.27;;
15488;SDS011;7846;48.830;9.116;2022-12-17T08:09:24;30.20;;;20.40;;
15488;SDS011;7846;48.830;9.116;2022-12-17T08:12:08;29.05;;;19.40;;
15488;SDS011;7846;48.830;9.116;2022-12-17T08:14:52;28.70;;;19.58;;
15488;SDS011;7846;48.830;9.116;2022-12-17T08:17:36;28.83;;;19.77;;
15488;SDS011;7846;48.830;9.116;2022-12-17T08:20:20;29.10;;;17.73;;
15488;SDS011;7846;48.830;9.116;2022-12-17T08:23:04;29.13;;;19.33;;
15488;SDS011;7846;48.830;9.116;2022-12-17T08:25:49;28.02;;;18.40;;
15488;SDS011;7846;48.830;9.116;2022-12-17T08:28:34;29.92;;;18.80;;
15488;SDS011;7846;48.830;9.116;2022-12-17T08:31:18;28.45;;;19.20;;
15488;SDS011;7846;48.830;9.116;2022-12-17T08:34:04;28.45;;;18.42;;
15488;SDS011;7846;48.830;9.116;2022-12-17T08:36:48;31.80;;;19.90;;
15488;SDS011;7846;48.830;9.116;2022-12-17T08:39:31;27.27;;;17.45;;
15488;SDS011;7846;48.830;9.116;2022-12-17T08:42:15;29.63;;;18.05;;
15488;SDS011;7846;48.830;9.116;2022-12-17T08:44:59;26.40;;;16.45;;
15488;SDS011;7846;48.830;9.116;2022-12-17T08:47:43;30.13;;;19.27;;
15488;SDS011;7846;48.830;9.116;2022-12-17T08:50:27;28.15;;;19.05;;
15488;SDS011;7846;48.830;9.116;2022-12-17T08:53:11;27.58;;;17.80;;
15488;SDS011;7846;48.830;9.116;2022-12-17T08:55:54;28.55;;;18.20;;
15488;SDS011;7846;48.830;9.116;2022-12-17T08:58:38;27.77;;;18.30;;
15488;SDS011;7846;48.830;9.116;2022-12-17T09:01:22;25.95;;;17.23;;
15488;SDS011;7846;48.830;9.116;2022-12-17T09:04:06;26.10;;;18.43;;
15488;SDS011;7846;48.830;9.116;2022-12-17T09:06:50;26.50;;;18.70;;
15488;SDS011;7846;48.830;9.116;2022-12-17T09:09:33;26.83;;;17.60;;
15488;SDS011;7846;48.830;9.116;2022-12-17T09:12:19;26.95;;;17.10;;
15488;SDS011;7846;48.830;9.116;2022-12-17T09:15:03;25.42;;;16.77;;
15488;SDS011;7846;48.830;9.116;2022-12-17T09:17:49;26.35;;;17.48;;
15488;SDS011;7846;48.830;9.116;2022-12-17T09:20:34;26.73;;;16.90;;
15488;SDS011;7846;48.830;9.116;2022-12-17T09:23:18;26.35;;;17.48;;
15488;SDS011;7846;48.830;9.116;2022-12-17T09:26:02;29.55;;;18.40;;
15488;SDS011;7846;48.830;9.116;2022-12-17T09:28:46;26.77;;;17.63;;
15488;SDS011;7846;48.830;9.116;2022-12-17T09:31:30;27.00;;;18.57;;
15488;SDS011;7846;48.830;9.116;2022-12-17T09:34:15;28.25;;;17.83;;
15488;SDS011;7846;48.830;9.116;2022-12-17T09:36:59;28.30;;;17.98;;
15488;SDS011;7846;48.830;9.116;2022-12-17T09:39:42;29.10;;;17.60;;
15488;SDS011;7846;48.830;9.116;2022-12-17T09:45:37;29.50;;;18.27;;
15488;SDS011;7846;48.830;9.116;2022-12-17T09:48:44;26.33;;;17.07;;
15488;SDS011;7846;48.830;9.116;2022-12-17T09:51:39;27.23;;;18.08;;
15488;SDS011;7846;48.830;9.116;2022-12-17T09:54:28;29.08;;;18.02;;
15488;SDS011;7846;48.830;9.116;2022-12-17T09:57:17;26.30;;;17.60;;
15488;SDS011;7846;48.830;9.116;2022-12-17T10:00:15;28.25;;;17.40;;
15488;SDS011;7846;48.830;9.116;2022-12-17T10:03:11;26.57;;;17.53;;
15488;SDS011;7846;48.830;9.116;2022-12-17T10:06:01;25.47;;;17.33;;
15488;SDS011;7846;48.830;9.116;2022-12-17T10:08:49;26.73;;;17.63;;
15488;SDS011;7846;48.830;9.116;2022-12-17T10:11:38;27.23;;;16.50;;
15488;SDS011;7846;48.830;9.116;2022-12-17T10:14:22;25.80;;;16.43;;
15488;SDS011;7846;48.830;9.116;2022-12-17T10:17:13;26.37;;;16.77;;
15488;SDS011;7846;48.830;9.116;2022-12-17T10:19:59;27.15;;;17.17;;
15488;SDS011;7846;48.830;9.116;2022-12-17T10:22:45;27.70;;;17.23;;
15488;SDS011;7846;48.830;9.116;2022-12-17T10:25:31;25.63;;;17.07;;
15488;SDS011;7846;48.830;9.116;2022-12-17T10:28:20;27.37;;;17.47;;
15488;SDS011;7846;48.830;9.116;2022-12-17T10:31:09;27.90;;;18.53;;
15488;SDS011;7846;48.830;9.116;2022-12-17T10:34:06;25.33;;;16.83;;
15488;SDS011;7846;48.830;9.116;2022-12-17T10:36:57;30.07;;;19.57;;
15488;SDS011;7846;48.830;9.116;2022-12-17T10:39:41;26.27;;;17.57;;
15488;SDS011;7846;48.830;9.116;2022-12-17T10:42:26;28.67;;;18.63;;
15488;SDS011;7846;48.830;9.116;2022-12-17T10:45:20;26.13;;;18.13;;
15488;SDS011;7846;48.830;9.116;2022-12-17T10:48:17;26.77;;;17.70;;
15488;SDS011;7846;48.830;9.116;2022-12-17T10:51:25;24.00;;;17.07;;
15488;SDS011;7846;48.830;9.116;2022-12-17T10:57:30;24.17;;;17.07;;
15488;SDS011;7846;48.830;9.116;2022-12-17T11:03:00;25.23;;;17.30;;
15488;SDS011;7846;48.830;9.116;2022-12-17T11:05:45;26.50;;;17.30;;
15488;SDS011;7846;48.830;9.116;2022-12-17T11:08:34;22.30;;;16.50;;
15488;SDS011;7846;48.830;9.116;2022-12-17T11:11:19;24.63;;;17.23;;
15488;SDS011;7846;48.830;9.116;2022-12-17T11:14:04;33.63;;;21.47;;
15488;SDS011;7846;48.830;9.116;2022-12-17T11:16:54;28.40;;;18.73;;
15488;SDS011;7846;48.830;9.116;2022-12-17T11:19:53;27.70;;;17.87;;
15488;SDS011;7846;48.830;9.116;2022-12-17T11:22:41;24.83;;;17.47;;
15488;SDS011;7846;48.830;9.116;2022-12-17T11:25:33;26.40;;;17.97;;
15488;SDS011;7846;48.830;9.116;2022-12-17T11:28:35;24.47;;;17.37;;
15488;SDS011;7846;48.830;9.116;2022-12-17T11:34:56;25.37;;;17.77;;
15488;SDS011;7846;48.830;9.116;2022-12-17T11:40:58;28.13;;;17.97;;
15488;SDS011;7846;48.830;9.116;2022-12-17T11:44:07;26.73;;;17.93;;
15488;SDS011;7846;48.830;9.116;2022-12-17T11:47:19;24.57;;;17.47;;
15488;SDS011;7846;48.830;9.116;2022-12-17T11:50:18;27.40;;;18.57;;
15488;SDS011;7846;48.830;9.116;2022-12-17T11:56:25;25.57;;;17.97;;
15488;SDS011;7846;48.830;9.116;2022-12-17T11:59:21;26.07;;;18.13;;
15488;SDS011;7846;48.830;9.116;2022-12-17T12:08:33;27.43;;;18.53;;
15488;SDS011;7846;48.830;9.116;2022-12-17T12:11:26;25.27;;;18.50;;
15488;SDS011;7846;48.830;9.116;2022-12-17T12:17:22;25.53;;;18.93;;
15488;SDS011;7846;48.830;9.116;2022-12-17T12:23:47;25.47;;;18.33;;
15488;SDS011;7846;48.830;9.116;2022-12-17T12:26:43;25.10;;;18.20;;
15488;SDS011;7846;48.830;9.116;2022-12-17T12:29:52;26.93;;;18.83;;
15488;SDS011;7846;48.830;9.116;2022-12-17T12:35:40;26.53;;;18.40;;
15488;SDS011;7846;48.830;9.116;2022-12-17T12:38:31;25.33;;;18.37;;
15488;SDS011;7846;48.830;9.116;2022-12-17T12:47:51;26.90;;;19.33;;
15488;SDS011;7846;48.830;9.116;2022-12-17T12:50:49;26.50;;;19.03;;
15488;SDS011;7846;48.830;9.116;2022-12-17T12:53:40;25.27;;;19.27;;
15488;SDS011;7846;48.830;9.116;2022-12-17T12:56:34;24.07;;;18.07;;
15488;SDS011;7846;48.830;9.116;2022-12-17T12:59:29;25.20;;;19.03;;
15488;SDS011;7846;48.830;9.116;2022-12-17T13:10:34;24.67;;;19.40;;
15488;SDS011;7846;48.830;9.116;2022-12-17T13:13:12;24.80;;;19.43;;
15488;SDS011;7846;48.830;9.116;2022-12-17T13:15:56;27.53;;;19.50;;
15488;SDS011;7846;48.830;9.116;2022-12-17T13:18:31;24.67;;;18.97;;
15488;SDS011;7846;48.830;9.116;2022-12-17T13:23:50;24.97;;;19.83;;
15488;SDS011;7846;48.830;9.116;2022-12-17T13:26:20;27.67;;;20.63;;
15488;SDS011;7846;48.830;9.116;2022-12-17T13:31:30;24.87;;;20.57;;
15488;SDS011;7846;48.830;9.116;2022-12-17T13:34:12;24.87;;;20.33;;
15488;SDS011;7846;48.830;9.116;2022-12-17T13:39:24;25.57;;;20.47;;
15488;SDS011;7846;48.830;9.116;2022-12-17T13:42:18;26.50;;;21.10;;
15488;SDS011;7846;48.830;9.116;2022-12-17T13:44:56;27.23;;;20.87;;
15488;SDS011;7846;48.830;9.116;2022-12-17T13:47:24;28.10;;;21.73;;
15488;SDS011;7846;48.830;9.116;2022-12-17T13:49:52;25.80;;;20.73;;
15488;SDS011;7846;48.830;9.116;2022-12-17T13:52:25;28.37;;;21.93;;
15488;SDS011;7846;48.830;9.116;2022-12-17T13:54:52;29.83;;;21.93;;
15488;SDS011;7846;48.830;9.116;2022-12-17T13:57:22;24.40;;;20.33;;
15488;SDS011;7846;48.830;9.116;2022-12-17T13:59:56;26.70;;;20.87;;
15488;SDS011;7846;48.830;9.116;2022-12-17T14:02:24;27.00;;;21.03;;
15488;SDS011;7846;48.830;9.116;2022-12-17T14:04:55;24.80;;;20.10;;
15488;SDS011;7846;48.830;9.116;2022-12-17T14:07:23;26.73;;;21.00;;
15488;SDS011;7846;48.830;9.116;2022-12-17T14:09:50;26.07;;;20.70;;
15488;SDS011;7846;48.830;9.116;2022-12-17T14:12:17;26.43;;;20.57;;
15488;SDS011;7846;48.830;9.116;2022-12-17T14:14:58;30.17;;;22.23;;
15488;SDS011;7846;48.830;9.116;2022-12-17T14:17:28;27.07;;;20.77;;
15488;SDS011;7846;48.830;9.116;2022-12-17T14:20:22;28.63;;;21.73;;
15488;SDS011;7846;48.830;9.116;2022-12-17T14:22:53;27.67;;;22.20;;
15488;SDS011;7846;48.830;9.116;2022-12-17T14:25:25;27.33;;;21.63;;
15488;SDS011;7846;48.830;9.116;2022-12-17T14:27:59;25.83;;;20.63;;
15488;SDS011;7846;48.830;9.116;2022-12-17T14:30:32;26.77;;;21.57;;
15488;SDS011;7846;48.830;9.116;2022-12-17T14:33:01;28.77;;;22.57;;
15488;SDS011;7846;48.830;9.116;2022-12-17T14:35:32;26.93;;;20.90;;
15488;SDS011;7846;48.830;9.116;2022-12-17T14:38:00;29.97;;;21.77;;
15488;SDS011;7846;48.830;9.116;2022-12-17T14:40:28;26.43;;;20.30;;
15488;SDS011;7846;48.830;9.116;2022-12-17T14:42:56;28.87;;;22.10;;
15488;SDS011;7846;48.830;9.116;2022-12-17T14:45:25;28.47;;;20.80;;
15488;SDS011;7846;48.830;9.116;2022-12-17T14:47:56;28.43;;;21.40;;
15488;SDS011;7846;48.830;9.116;2022-12-17T14:50:28;29.80;;;21.47;;
15488;SDS011;7846;48.830;9.116;2022-12-17T14:52:56;31.67;;;23.47;;
15488;SDS011;7846;48.830;9.116;2022-12-17T15:00:43;31.40;;;21.73;;
15488;SDS011;7846;48.830;9.116;2022-12-17T15:03:18;30.53;;;21.53;;
15488;SDS011;7846;48.830;9.116;2022-12-17T15:06:08;31.33;;;21.83;;
15488;SDS011;7846;48.830;9.116;2022-12-17T15:08:40;30.43;;;21.37;;
15488;SDS011;7846;48.830;9.116;2022-12-17T15:11:09;32.70;;;21.27;;
15488;SDS011;7846;48.830;9.116;2022-12-17T15:13:36;30.43;;;21.80;;
15488;SDS011;7846;48.830;9.116;2022-12-17T15:16:02;31.00;;;21.93;;
15488;SDS011;7846;48.830;9.116;2022-12-17T15:18:27;32.70;;;21.50;;
15488;SDS011;7846;48.830;9.116;2022-12-17T15:20:55;27.60;;;19.50;;
15488;SDS011;7846;48.830;9.116;2022-12-17T15:23:21;29.37;;;21.07;;
15488;SDS011;7846;48.830;9.116;2022-12-17T15:25:49;29.53;;;20.63;;
15488;SDS011;7846;48.830;9.116;2022-12-17T15:28:16;29.27;;;20.10;;
15488;SDS011;7846;48.830;9.116;2022-12-17T15:30:45;33.73;;;22.37;;
15488;SDS011;7846;48.830;9.116;2022-12-17T15:33:12;33.30;;;22.53;;
15488;SDS011;7846;48.830;9.116;2022-12-17T15:35:39;29.85;;;20.58;;
15488;SDS011;7846;48.830;9.116;2022-12-17T15:38:05;31.05;;;21.05;;
15488;SDS011;7846;48.830;9.116;2022-12-17T15:40:31;32.10;;;21.07;;
15488;SDS011;7846;48.830;9.116;2022-12-17T15:42:57;31.83;;;21.23;;
15488;SDS011;7846;48.830;9.116;2022-12-17T15:45:48;31.33;;;20.45;;
15488;SDS011;7846;48.830;9.116;2022-12-17T15:48:15;31.52;;;21.13;;
15488;SDS011;7846;48.830;9.116;2022-12-17T15:50:43;31.67;;;20.27;;
15488;SDS011;7846;48.830;9.116;2022-12-17T15:53:08;31.90;;;22.57;;
15488;SDS011;7846;48.830;9.116;2022-12-17T15:55:34;36.10;;;21.90;;
15488;SDS011;7846;48.830;9.116;2022-12-17T15:58:00;36.60;;;23.48;;
15488;SDS011;7846;48.830;9.116;2022-12-17T16:00:26;33.97;;;22.27;;
15488;SDS011;7846;48.830;9.116;2022-12-17T16:02:51;34.77;;;22.37;;
15488;SDS011;7846;48.830;9.116;2022-12-17T16:05:17;31.57;;;22.40;;
15488;SDS011;7846;48.830;9.116;2022-12-17T16:07:43;36.92;;;23.48;;
15488;SDS011;7846;48.830;9.116;2022-12-17T16:10:10;37.10;;;23.93;;
15488;SDS011;7846;48.830;9.116;2022-12-17T16:12:36;37.17;;;23.80;;
15488;SDS011;7846;48.830;9.116;2022-12-17T16:15:04;37.78;;;24.45;;
15488;SDS011;7846;48.830;9.116;2022-12-17T16:17:30;40.05;;;24.83;;
15488;SDS011;7846;48.830;9.116;2022-12-17T16:19:57;38.95;;;25.40;;
15488;SDS011;7846;48.830;9.116;2022-12-17T16:22:22;42.00;;;25.57;;
15488;SDS011;7846;48.830;9.116;2022-12-17T16:24:48;43.97;;;26.50;;
15488;SDS011;7846;48.830;9.116;2022-12-17T16:27:13;44.00;;;27.13;;
15488;SDS011;7846;48.830;9.116;2022-12-17T16:29:42;42.40;;;25.50;;
15488;SDS011;7846;48.830;9.116;2022-12-17T16:32:07;38.17;;;24.97;;
15488;SDS011;7846;48.830;9.116;2022-12-17T16:34:32;40.43;;;24.27;;
15488;SDS011;7846;48.830;9.116;2022-12-17T16:36:58;40.07;;;25.77;;
15488;SDS011;7846;48.830;9.116;2022-12-17T16:39:25;41.30;;;25.17;;
15488;SDS011;7846;48.830;9.116;2022-12-17T16:41:52;40.15;;;24.55;;
15488;SDS011;7846;48.830;9.116;2022-12-17T16:44:17;39.13;;;23.77;;
15488;SDS011;7846;48.830;9.116;2022-12-17T16:46:43;37.20;;;23.37;;
15488;SDS011;7846;48.830;9.116;2022-12-17T16:49:14;35.05;;;22.75;;
15488;SDS011;7846;48.830;9.116;2022-12-17T16:51:42;36.63;;;22.60;;
15488;SDS011;7846;48.830;9.116;2022-12-17T16:54:13;36.90;;;23.38;;
15488;SDS011;7846;48.830;9.116;2022-12-17T16:56:43;39.45;;;24.30;;
15488;SDS011;7846;48.830;9.116;2022-12-17T16:59:14;43.33;;;24.88;;
15488;SDS011;7846;48.830;9.116;2022-12-17T17:01:40;39.75;;;24.20;;
15488;SDS011;7846;48.830;9.116;2022-12-17T17:04:09;39.22;;;24.17;;
15488;SDS011;7846;48.830;9.116;2022-12-17T17:06:38;39.78;;;25.02;;
15488;SDS011;7846;48.830;9.116;2022-12-17T17:09:07;38.85;;;24.08;;
15488;SDS011;7846;48.830;9.116;2022-12-17T17:11:34;41.92;;;25.05;;